METAR Data
IDs: Format: Raw Decoded Include TAF

Data at: 1349 UTC 26 Feb 2021

KRTS 261335Z AUTO 17005KT 10SM CLR M05/M11 A3017 RMK AO2
KRTS 261315Z AUTO 00000KT 10SM CLR M04/M13 A3017 RMK AO2
KRTS 261255Z AUTO 00000KT 10SM CLR M04/M12 A3017 RMK AO2
KRTS 261235Z AUTO 00000KT 10SM CLR M03/M13 A3017 RMK AO2
KRTS 261215Z AUTO 00000KT 10SM CLR M01/M13 A3017 RMK AO2
KRTS 261155Z AUTO VRB03KT 10SM CLR M03/M12 A3017 RMK AO2
KRTS 261135Z AUTO 30004KT 10SM CLR M04/M13 A3018 RMK AO2
KRTS 261115Z AUTO 00000KT 10SM CLR M05/M13 A3017 RMK AO2
KRTS 261055Z AUTO VRB04KT 10SM CLR M06/M13 A3018 RMK AO2
KRTS 261035Z AUTO 31003KT 10SM CLR M05/M12 A3019 RMK AO2
KRTS 261015Z AUTO 00000KT 10SM CLR M03/M12 A3019 RMK AO2
KRTS 260955Z AUTO 16005KT 10SM CLR M04/M11 A3020 RMK AO2
KRTS 260935Z AUTO 09004KT 10SM CLR M02/M12 A3020 RMK AO2
KRTS 260915Z AUTO 11004KT 10SM CLR M02/M10 A3020 RMK AO2
KRTS 260855Z AUTO 14004KT 10SM CLR M01/M12 A3020 RMK AO2
KRTS 260835Z AUTO 00000KT 10SM CLR M01/M13 A3020 RMK AO2
KRTS 260815Z AUTO 00000KT 10SM CLR M01/M13 A3020 RMK AO2
KRTS 260755Z AUTO 36007KT 10SM CLR M03/M13 A3021 RMK AO2